Time;durP1;ratioP1;P1;durP2;ratioP2;P2;SDS_P1;SDS_P2;PMS_P1;PMS_P2;Temp;Humidity;BMP_temperature;BMP_pressure;BME280_temperature;BME280_humidity;BME280_pressure;Samples;Min_cycle;Max_cycle;Signal;HPM_P1;HPM_P2
2023/11/28 00:01:04;;;;;;;1.30;0.70;;;3.40;99.90;;;;;;5072703;28;20451;-68
2023/11/28 00:03:31;;;;;;;0.97;0.80;;;3.40;99.90;;;;;;5083012;28;20442;-68
2023/11/28 00:05:56;;;;;;;0.77;0.63;;;3.30;99.90;;;;;;5078780;28;20415;-68
2023/11/28 00:08:23;;;;;;;1.00;0.57;;;3.30;99.90;;;;;;5088610;28;20455;-68
2023/11/28 00:10:48;;;;;;;0.60;0.57;;;3.30;99.90;;;;;;5075485;28;20277;-68
2023/11/28 00:13:14;;;;;;;0.90;0.87;;;3.30;99.90;;;;;;5082907;28;21923;-68
2023/11/28 00:15:41;;;;;;;0.70;0.70;;;3.30;99.90;;;;;;5084743;28;20234;-68
2023/11/28 00:18:06;;;;;;;0.60;0.60;;;3.30;99.90;;;;;;5077215;28;20242;-68
2023/11/28 00:20:32;;;;;;;1.00;0.70;;;3.30;99.90;;;;;;5074807;28;20444;-68
2023/11/28 00:22:57;;;;;;;0.70;0.70;;;3.40;99.90;;;;;;5079208;28;20242;-68
2023/11/28 00:25:23;;;;;;;2.80;0.90;;;3.40;99.90;;;;;;5084022;28;20228;-68
2023/11/28 00:27:49;;;;;;;1.20;0.70;;;3.40;99.90;;;;;;5071190;28;20250;-68
2023/11/28 00:30:15;;;;;;;1.13;0.90;;;3.40;99.90;;;;;;5073534;28;20181;-68
2023/11/28 00:32:42;;;;;;;1.30;0.80;;;3.40;99.90;;;;;;5082828;28;20181;-68
2023/11/28 00:35:08;;;;;;;0.87;0.67;;;3.40;99.90;;;;;;5090005;28;20476;-68
2023/11/28 00:37:34;;;;;;;1.30;1.20;;;3.40;99.90;;;;;;5091317;28;20958;-68
2023/11/28 00:39:59;;;;;;;1.60;0.50;;;3.40;99.90;;;;;;5081770;28;20252;-68
2023/11/28 00:42:25;;;;;;;1.37;1.00;;;3.40;99.90;;;;;;5072579;28;20281;-68
2023/11/28 00:44:52;;;;;;;1.33;0.80;;;3.50;99.90;;;;;;5086087;28;20572;-68
2023/11/28 00:47:17;;;;;;;0.90;0.63;;;3.50;99.90;;;;;;5081549;28;20455;-68
2023/11/28 00:49:43;;;;;;;1.90;1.00;;;3.50;99.90;;;;;;5086822;28;20960;-68
2023/11/28 00:52:10;;;;;;;0.90;0.70;;;3.50;99.90;;;;;;5078683;28;20173;-68
2023/11/28 00:54:37;;;;;;;1.33;0.77;;;3.50;99.90;;;;;;5080345;28;20268;-68
2023/11/28 00:57:04;;;;;;;1.20;0.80;;;3.50;99.90;;;;;;5080611;28;21078;-68
2023/11/28 00:59:30;;;;;;;1.53;1.10;;;3.50;99.90;;;;;;5078982;28;20444;-68
2023/11/28 01:01:56;;;;;;;0.80;0.80;;;3.50;99.90;;;;;;5079921;28;21034;-68
2023/11/28 01:04:21;;;;;;;0.93;0.90;;;3.50;99.90;;;;;;5078098;28;20463;-68
2023/11/28 01:06:47;;;;;;;1.23;1.13;;;3.50;99.90;;;;;;5081628;28;20211;-68
2023/11/28 01:09:14;;;;;;;1.03;0.90;;;3.50;99.90;;;;;;5086631;28;20164;-68
2023/11/28 01:11:43;;;;;;;1.47;1.17;;;3.50;99.90;;;;;;5072457;28;20179;-68
2023/11/28 01:14:08;;;;;;;1.10;1.00;;;3.50;99.90;;;;;;5083759;28;20433;-68
2023/11/28 01:16:34;;;;;;;1.50;1.10;;;3.50;99.90;;;;;;5088285;28;20803;-68
2023/11/28 01:19:00;;;;;;;1.03;0.93;;;3.50;99.90;;;;;;5093668;28;20168;-68
2023/11/28 01:21:26;;;;;;;0.63;0.50;;;3.50;99.90;;;;;;5081002;28;20693;-69
2023/11/28 01:23:51;;;;;;;0.83;0.63;;;3.50;99.90;;;;;;5085398;28;20549;-68
2023/11/28 01:26:17;;;;;;;0.90;0.70;;;3.50;99.90;;;;;;5075429;28;20896;-68
2023/11/28 01:28:43;;;;;;;1.30;0.90;;;3.50;99.90;;;;;;5073487;28;20173;-68
2023/11/28 01:31:11;;;;;;;1.67;1.20;;;3.50;99.90;;;;;;5082863;28;20177;-68
2023/11/28 01:33:37;;;;;;;0.70;0.70;;;3.50;99.90;;;;;;5073313;28;20257;-68
2023/11/28 01:36:06;;;;;;;1.70;0.70;;;3.60;99.90;;;;;;5078173;28;20526;-68
2023/11/28 01:38:32;;;;;;;0.90;0.90;;;3.60;99.90;;;;;;5080574;28;20161;-68
2023/11/28 01:40:59;;;;;;;0.67;0.67;;;3.60;99.90;;;;;;5072230;28;20570;-68
2023/11/28 01:43:25;;;;;;;2.67;1.00;;;3.60;99.90;;;;;;5079425;28;20541;-68
2023/11/28 01:45:51;;;;;;;0.90;0.77;;;3.60;99.90;;;;;;5071981;28;20474;-68
2023/11/28 01:48:18;;;;;;;0.70;0.70;;;3.60;99.90;;;;;;5090756;28;20429;-68
2023/11/28 01:50:43;;;;;;;0.70;0.70;;;3.70;99.90;;;;;;5085087;28;20172;-68
2023/11/28 01:53:10;;;;;;;1.00;0.90;;;3.70;99.90;;;;;;5075958;28;20798;-68
2023/11/28 01:55:36;;;;;;;0.60;0.60;;;3.70;99.90;;;;;;5078872;28;20173;-68
2023/11/28 01:58:02;;;;;;;0.50;0.50;;;3.70;99.90;;;;;;5080391;28;20846;-68
2023/11/28 02:00:27;;;;;;;0.80;0.70;;;3.70;99.90;;;;;;5082046;28;20422;-68
2023/11/28 02:02:56;;;;;;;0.80;0.73;;;3.70;99.90;;;;;;5073030;28;20226;-68
2023/11/28 02:05:22;;;;;;;0.90;0.90;;;3.80;99.90;;;;;;5071389;28;20207;-68
2023/11/28 02:07:48;;;;;;;0.83;0.83;;;3.80;99.90;;;;;;5081412;28;20484;-68
2023/11/28 02:10:14;;;;;;;0.90;0.90;;;3.80;99.90;;;;;;5074625;28;20208;-68
2023/11/28 02:12:42;;;;;;;0.83;0.57;;;3.80;99.90;;;;;;5079211;28;20626;-68
2023/11/28 02:15:09;;;;;;;0.73;0.70;;;3.80;99.90;;;;;;5082288;28;20488;-68
2023/11/28 02:17:34;;;;;;;1.23;0.63;;;3.80;99.90;;;;;;5076170;28;20455;-68
2023/11/28 02:20:00;;;;;;;0.77;0.70;;;3.80;99.90;;;;;;5076274;28;20646;-68
2023/11/28 02:22:26;;;;;;;0.60;0.60;;;3.80;99.90;;;;;;5073145;28;20193;-69
2023/11/28 02:24:55;;;;;;;0.90;0.90;;;3.90;99.90;;;;;;5074745;28;20204;-68
2023/11/28 02:27:21;;;;;;;1.27;0.90;;;3.90;99.90;;;;;;5076278;28;20458;-68
2023/11/28 02:29:46;;;;;;;1.30;1.00;;;3.90;99.90;;;;;;5084150;28;20434;-68
2023/11/28 02:32:12;;;;;;;1.60;1.10;;;3.90;99.90;;;;;;5084948;28;20691;-68
2023/11/28 02:34:38;;;;;;;0.83;0.83;;;3.90;99.90;;;;;;5081835;28;20682;-68
2023/11/28 02:37:03;;;;;;;1.00;0.90;;;4.00;99.90;;;;;;5082805;28;20457;-68
2023/11/28 02:39:29;;;;;;;1.17;1.07;;;4.00;99.90;;;;;;5077162;28;20668;-68
2023/11/28 02:41:55;;;;;;;4.13;1.17;;;4.00;99.90;;;;;;5081367;28;20177;-68
2023/11/28 02:44:20;;;;;;;1.47;1.37;;;4.00;99.90;;;;;;5086269;28;20462;-68
2023/11/28 02:46:46;;;;;;;3.10;1.30;;;4.00;99.90;;;;;;5076048;28;20262;-68
2023/11/28 02:49:11;;;;;;;1.17;1.07;;;4.10;99.90;;;;;;5079395;28;20233;-68
2023/11/28 02:51:37;;;;;;;1.50;1.40;;;4.10;99.90;;;;;;5081259;28;20194;-68
2023/11/28 02:54:02;;;;;;;1.10;1.00;;;4.10;99.90;;;;;;5079335;28;20252;-68
2023/11/28 02:56:28;;;;;;;0.90;0.90;;;4.10;99.90;;;;;;5084085;28;20738;-68
2023/11/28 02:58:56;;;;;;;1.17;1.07;;;4.10;99.90;;;;;;5080431;28;20191;-68
2023/11/28 03:01:22;;;;;;;1.20;1.10;;;4.10;99.90;;;;;;5072918;28;20169;-68
2023/11/28 03:03:47;;;;;;;1.33;1.20;;;4.10;99.90;;;;;;5072604;28;20656;-68
2023/11/28 03:06:13;;;;;;;1.10;1.10;;;4.20;99.90;;;;;;5070227;28;20197;-68
2023/11/28 03:08:39;;;;;;;1.10;1.10;;;4.20;99.90;;;;;;5072031;28;20560;-68
2023/11/28 03:11:04;;;;;;;1.60;1.30;;;4.20;99.90;;;;;;5087906;28;20637;-68
2023/11/28 03:13:30;;;;;;;1.27;1.17;;;4.20;99.90;;;;;;5079972;28;20181;-68
2023/11/28 03:15:55;;;;;;;1.97;1.17;;;4.20;99.90;;;;;;5079984;28;20315;-68
2023/11/28 03:18:21;;;;;;;0.80;0.80;;;4.30;99.90;;;;;;5083657;28;20529;-69
2023/11/28 03:20:46;;;;;;;2.37;0.93;;;4.30;99.90;;;;;;5080627;28;20264;-68
2023/11/28 03:23:12;;;;;;;1.20;1.13;;;4.30;99.90;;;;;;5081209;28;20252;-68
2023/11/28 03:25:37;;;;;;;0.93;0.83;;;4.30;99.90;;;;;;5067315;28;20208;-68
2023/11/28 03:28:03;;;;;;;1.00;0.97;;;4.30;99.90;;;;;;5071055;28;20207;-68
2023/11/28 03:30:29;;;;;;;1.80;0.77;;;4.30;99.90;;;;;;5070500;28;20188;-68
2023/11/28 03:32:54;;;;;;;0.90;0.90;;;4.30;99.90;;;;;;5084955;28;20641;-68
2023/11/28 03:35:20;;;;;;;0.77;0.77;;;4.30;99.90;;;;;;5068834;28;20271;-68
2023/11/28 03:37:46;;;;;;;1.33;0.70;;;4.30;99.90;;;;;;5080051;28;20254;-68
2023/11/28 03:40:12;;;;;;;0.77;0.77;;;4.30;99.90;;;;;;5065400;28;20174;-68
2023/11/28 03:42:38;;;;;;;1.27;0.93;;;4.30;99.90;;;;;;5077765;28;20502;-68
2023/11/28 03:45:04;;;;;;;3.70;0.90;;;4.30;99.90;;;;;;5081838;28;20495;-68
2023/11/28 03:47:30;;;;;;;1.33;0.63;;;4.30;99.90;;;;;;5091805;28;20191;-68
2023/11/28 03:49:56;;;;;;;2.37;1.10;;;4.30;99.90;;;;;;5076216;28;20927;-68
2023/11/28 03:52:22;;;;;;;0.80;0.60;;;4.30;99.90;;;;;;5080153;28;20181;-68
2023/11/28 03:54:47;;;;;;;1.60;0.93;;;4.30;99.90;;;;;;5078810;28;20185;-68
2023/11/28 03:57:13;;;;;;;1.00;0.70;;;4.30;99.90;;;;;;5090622;28;20231;-68
2023/11/28 03:59:39;;;;;;;0.63;0.63;;;4.30;99.90;;;;;;5083753;28;20215;-68
2023/11/28 04:02:04;;;;;;;1.13;0.70;;;4.30;99.90;;;;;;5081128;28;20195;-68
2023/11/28 04:04:30;;;;;;;0.60;0.60;;;4.30;99.90;;;;;;5085023;28;20654;-68
2023/11/28 04:06:56;;;;;;;0.93;0.67;;;4.30;99.90;;;;;;5075640;28;20209;-68
2023/11/28 04:09:22;;;;;;;0.57;0.57;;;4.30;99.90;;;;;;5078699;28;20176;-68
2023/11/28 04:11:48;;;;;;;0.97;0.60;;;4.20;99.90;;;;;;5075927;28;20865;-68
2023/11/28 04:14:14;;;;;;;1.07;0.90;;;4.30;99.90;;;;;;5081375;28;20572;-67
2023/11/28 04:16:40;;;;;;;1.10;0.70;;;4.30;99.90;;;;;;5077500;28;20596;-68
2023/11/28 04:19:05;;;;;;;1.23;0.80;;;4.30;99.90;;;;;;5087494;28;20426;-68
2023/11/28 04:21:31;;;;;;;0.70;0.70;;;4.30;99.90;;;;;;5074672;28;20187;-68
2023/11/28 04:23:57;;;;;;;0.77;0.77;;;4.30;99.90;;;;;;5079846;28;20204;-68
2023/11/28 04:26:22;;;;;;;0.60;0.60;;;4.30;99.90;;;;;;5092153;28;20807;-68
2023/11/28 04:28:48;;;;;;;1.17;0.70;;;4.30;99.90;;;;;;5083709;28;20782;-67
2023/11/28 04:31:20;;;;;;;1.07;0.80;;;4.30;99.90;;;;;;5074579;28;20668;-68
2023/11/28 04:33:46;;;;;;;1.70;0.90;;;4.30;99.90;;;;;;5083787;28;20526;-68
2023/11/28 04:36:15;;;;;;;0.60;0.60;;;4.30;99.90;;;;;;5076264;28;20461;-68
2023/11/28 04:38:41;;;;;;;0.80;0.80;;;4.30;99.90;;;;;;5085137;28;20193;-68
2023/11/28 04:41:13;;;;;;;1.33;1.23;;;4.30;99.90;;;;;;5057176;28;20951;-68
2023/11/28 04:43:39;;;;;;;2.63;1.43;;;4.40;99.90;;;;;;5082142;28;20459;-68
2023/11/28 04:46:05;;;;;;;1.23;1.10;;;4.40;99.90;;;;;;5077649;28;20797;-68
2023/11/28 04:48:31;;;;;;;1.20;1.13;;;4.30;99.90;;;;;;5083178;28;20265;-68
2023/11/28 04:50:56;;;;;;;2.10;1.00;;;4.30;99.90;;;;;;5074436;28;20975;-68
2023/11/28 04:53:22;;;;;;;1.00;0.90;;;4.30;99.90;;;;;;5081190;28;20181;-68
2023/11/28 04:55:47;;;;;;;1.07;0.77;;;4.30;99.90;;;;;;5090836;28;20184;-68
2023/11/28 04:58:13;;;;;;;0.73;0.50;;;4.40;99.90;;;;;;5084304;28;20216;-68
2023/11/28 05:00:38;;;;;;;0.70;0.70;;;4.30;99.90;;;;;;5086421;28;20176;-68
2023/11/28 05:03:04;;;;;;;3.70;0.80;;;4.30;99.90;;;;;;5082540;28;20192;-68
2023/11/28 05:05:29;;;;;;;0.70;0.60;;;4.30;99.90;;;;;;5084039;28;20225;-68
2023/11/28 05:07:55;;;;;;;0.50;0.50;;;4.30;99.90;;;;;;5085800;28;20211;-68
2023/11/28 05:10:20;;;;;;;2.20;1.33;;;4.30;99.90;;;;;;5085238;28;20702;-68
2023/11/28 05:12:46;;;;;;;1.70;1.17;;;4.30;99.90;;;;;;5079472;28;20177;-68
2023/11/28 05:15:12;;;;;;;4.00;1.10;;;4.40;99.90;;;;;;5085531;28;20187;-69
2023/11/28 05:17:37;;;;;;;0.80;0.70;;;4.30;99.90;;;;;;5087639;28;20211;-69
2023/11/28 05:20:04;;;;;;;2.40;0.60;;;4.40;99.90;;;;;;5084720;28;20234;-68
2023/11/28 05:22:30;;;;;;;1.40;0.83;;;4.40;99.90;;;;;;5087495;28;20268;-69
2023/11/28 05:24:55;;;;;;;1.03;0.93;;;4.50;99.90;;;;;;5079879;28;20538;-68
2023/11/28 05:27:21;;;;;;;0.90;0.90;;;4.50;99.90;;;;;;5090778;28;20243;-68
2023/11/28 05:29:46;;;;;;;1.03;1.00;;;4.50;99.90;;;;;;5085326;28;20182;-68
2023/11/28 05:32:12;;;;;;;2.00;1.00;;;4.50;99.90;;;;;;5087404;28;20177;-68
2023/11/28 05:34:37;;;;;;;1.77;1.40;;;4.50;99.90;;;;;;5080573;28;20195;-68
2023/11/28 05:37:03;;;;;;;1.40;1.30;;;4.50;99.90;;;;;;5083534;28;20215;-69
2023/11/28 05:39:29;;;;;;;2.00;1.90;;;4.50;99.90;;;;;;5072789;28;20188;-68
2023/11/28 05:41:54;;;;;;;1.80;1.70;;;4.50;99.90;;;;;;5073451;28;20255;-68
2023/11/28 05:44:20;;;;;;;3.53;2.27;;;4.50;99.90;;;;;;5073975;28;20211;-68
2023/11/28 05:46:46;;;;;;;2.40;2.20;;;4.40;99.90;;;;;;5085005;28;20196;-68
2023/11/28 05:49:11;;;;;;;2.57;2.37;;;4.40;99.90;;;;;;5085846;28;20184;-68
2023/11/28 05:51:37;;;;;;;2.43;2.23;;;4.30;99.90;;;;;;5094365;28;20253;-68
2023/11/28 05:54:03;;;;;;;4.73;2.30;;;4.30;99.90;;;;;;5073709;28;20188;-68
2023/11/28 05:56:29;;;;;;;3.70;3.00;;;4.20;99.90;;;;;;5080347;28;20220;-70
2023/11/28 05:58:55;;;;;;;2.40;2.20;;;4.20;99.90;;;;;;5078786;28;20832;-69
2023/11/28 06:01:26;;;;;;;2.30;2.10;;;4.20;99.90;;;;;;5086062;28;20439;-69
2023/11/28 06:03:51;;;;;;;2.60;2.27;;;4.20;99.90;;;;;;5079772;28;20199;-69
2023/11/28 06:06:17;;;;;;;1.90;1.80;;;4.20;99.90;;;;;;5081516;28;20475;-69
2023/11/28 06:08:42;;;;;;;2.57;2.37;;;4.10;99.90;;;;;;5073576;28;20181;-69
2023/11/28 06:11:09;;;;;;;2.70;2.50;;;4.00;99.90;;;;;;5092163;28;20187;-69
2023/11/28 06:13:35;;;;;;;2.27;2.10;;;4.00;99.90;;;;;;5084315;28;20230;-69
2023/11/28 06:16:07;;;;;;;3.40;1.83;;;4.00;99.90;;;;;;5072475;28;20951;-69
2023/11/28 06:18:33;;;;;;;2.70;2.50;;;4.00;99.90;;;;;;5079937;28;20453;-69
2023/11/28 06:20:58;;;;;;;4.30;2.53;;;4.00;99.90;;;;;;5089766;28;20434;-69
2023/11/28 06:23:24;;;;;;;3.43;3.20;;;4.00;99.90;;;;;;5072257;28;20219;-68
2023/11/28 06:25:50;;;;;;;2.97;2.70;;;4.00;99.90;;;;;;5072486;28;20209;-69
2023/11/28 06:28:16;;;;;;;3.07;2.87;;;4.00;99.90;;;;;;5083063;28;20180;-69
2023/11/28 06:30:42;;;;;;;2.83;2.63;;;4.00;99.90;;;;;;5078783;28;20181;-69
2023/11/28 06:33:07;;;;;;;2.70;2.50;;;4.00;99.90;;;;;;5072571;28;20589;-69
2023/11/28 06:35:34;;;;;;;2.30;2.10;;;4.00;99.90;;;;;;5069619;28;20182;-69
2023/11/28 06:38:00;;;;;;;2.40;2.20;;;3.90;99.90;;;;;;5075651;28;20717;-68
2023/11/28 06:40:26;;;;;;;2.40;2.20;;;3.90;99.90;;;;;;5093284;28;20772;-69
2023/11/28 06:42:51;;;;;;;2.30;2.20;;;3.90;99.90;;;;;;5086166;28;20465;-69
2023/11/28 06:45:17;;;;;;;2.40;2.20;;;3.90;99.90;;;;;;5076769;28;20615;-69
2023/11/28 06:47:43;;;;;;;2.00;1.90;;;3.90;99.90;;;;;;5078786;28;20200;-69
2023/11/28 06:50:10;;;;;;;2.60;1.93;;;3.90;99.90;;;;;;5084624;28;20186;-68
2023/11/28 06:52:36;;;;;;;2.07;1.97;;;3.80;99.90;;;;;;5074322;28;20271;-68
2023/11/28 06:55:06;;;;;;;4.60;2.40;;;3.80;99.90;;;;;;5081399;28;20456;-69
2023/11/28 06:57:33;;;;;;;1.83;1.73;;;3.80;99.90;;;;;;5077236;28;20477;-68
2023/11/28 06:59:58;;;;;;;1.47;1.37;;;3.70;99.90;;;;;;5084528;28;20429;-68
2023/11/28 07:02:24;;;;;;;0.67;0.60;;;3.50;99.90;;;;;;5072055;28;20423;-69
2023/11/28 07:04:49;;;;;;;0.70;0.70;;;3.20;99.90;;;;;;5078541;28;20211;-69
2023/11/28 07:07:15;;;;;;;0.90;0.90;;;3.00;99.90;;;;;;5072938;28;20201;-69
2023/11/28 07:09:47;;;;;;;0.80;0.80;;;2.80;99.90;;;;;;5072527;28;20172;-68
2023/11/28 07:12:13;;;;;;;0.53;0.53;;;2.70;99.90;;;;;;5074216;28;20173;-68
2023/11/28 07:14:38;;;;;;;1.30;0.93;;;2.60;99.90;;;;;;5083370;28;20437;-68
2023/11/28 07:17:04;;;;;;;0.87;0.80;;;2.60;99.90;;;;;;5079802;28;20558;-69
2023/11/28 07:19:29;;;;;;;0.97;0.97;;;2.60;99.90;;;;;;5070058;28;20672;-69
2023/11/28 07:21:55;;;;;;;0.67;0.67;;;2.60;99.90;;;;;;5079783;28;20181;-69
2023/11/28 07:24:21;;;;;;;0.80;0.80;;;2.60;99.90;;;;;;5082443;28;20577;-69
2023/11/28 07:26:46;;;;;;;0.73;0.70;;;2.50;99.90;;;;;;5081339;28;20446;-70
2023/11/28 07:29:12;;;;;;;1.00;1.00;;;2.50;99.90;;;;;;5082133;28;20267;-69
2023/11/28 07:31:38;;;;;;;0.87;0.87;;;2.50;99.90;;;;;;5086431;28;20204;-68
2023/11/28 07:34:04;;;;;;;1.27;1.27;;;2.50;99.90;;;;;;5079928;28;20223;-68
2023/11/28 07:36:29;;;;;;;1.20;1.10;;;2.50;99.90;;;;;;5083425;28;20970;-68
2023/11/28 07:38:56;;;;;;;1.10;1.00;;;2.50;99.90;;;;;;5067756;28;20535;-69
2023/11/28 07:41:22;;;;;;;1.47;1.37;;;2.50;99.90;;;;;;5082786;28;20216;-69
2023/11/28 07:43:48;;;;;;;1.63;1.10;;;2.40;99.90;;;;;;5073698;28;20488;-70
2023/11/28 07:46:14;;;;;;;1.13;1.03;;;2.40;99.90;;;;;;5072247;28;20486;-68
2023/11/28 07:48:40;;;;;;;1.60;1.50;;;2.50;99.90;;;;;;5082753;28;20473;-69
2023/11/28 07:51:06;;;;;;;1.10;1.10;;;2.70;99.90;;;;;;5083185;28;20190;-71
2023/11/28 07:53:32;;;;;;;1.73;1.63;;;2.70;99.90;;;;;;5064661;28;20439;-70
2023/11/28 07:55:58;;;;;;;1.30;1.20;;;2.60;99.90;;;;;;5081401;28;20532;-70
2023/11/28 07:58:23;;;;;;;1.40;1.30;;;2.50;99.90;;;;;;5075566;28;20188;-72
2023/11/28 08:00:49;;;;;;;1.40;1.30;;;2.40;99.90;;;;;;5064560;28;20177;-71
2023/11/28 08:03:14;;;;;;;1.57;1.47;;;2.40;99.90;;;;;;5081826;28;20195;-68
2023/11/28 08:05:40;;;;;;;1.33;1.23;;;2.30;99.90;;;;;;5085729;28;20212;-70
2023/11/28 08:08:05;;;;;;;2.27;1.63;;;2.30;99.90;;;;;;5073297;28;20607;-70
2023/11/28 08:10:31;;;;;;;1.90;1.37;;;2.30;99.90;;;;;;5067914;28;20173;-70
2023/11/28 08:12:57;;;;;;;2.03;1.90;;;2.30;99.90;;;;;;5074025;28;20877;-71
2023/11/28 08:15:22;;;;;;;1.40;1.30;;;2.30;99.90;;;;;;5072505;28;20266;-71
2023/11/28 08:17:48;;;;;;;3.73;1.63;;;2.20;99.90;;;;;;5076269;28;20303;-70
2023/11/28 08:20:13;;;;;;;1.10;1.10;;;2.30;99.90;;;;;;5076442;28;20205;-71
2023/11/28 08:22:39;;;;;;;1.53;1.43;;;2.30;99.90;;;;;;5077929;28;20184;-70
2023/11/28 08:25:04;;;;;;;1.97;1.87;;;2.30;99.90;;;;;;5072957;28;20701;-71
2023/11/28 08:27:30;;;;;;;1.97;1.87;;;2.20;99.90;;;;;;5083523;28;20288;-70
2023/11/28 08:29:55;;;;;;;1.80;1.70;;;2.20;99.90;;;;;;5077859;28;20181;-71
2023/11/28 08:32:21;;;;;;;1.80;1.70;;;2.20;99.90;;;;;;5079849;28;20180;-70
2023/11/28 08:34:47;;;;;;;1.90;1.80;;;2.30;99.90;;;;;;5082030;28;20195;-71
2023/11/28 08:37:12;;;;;;;2.27;1.50;;;2.30;99.90;;;;;;5073048;28;20287;-70
2023/11/28 08:39:38;;;;;;;1.80;1.70;;;2.30;99.90;;;;;;5076687;28;20538;-70
2023/11/28 08:42:04;;;;;;;1.90;1.80;;;2.30;99.90;;;;;;5068496;28;20193;-70
2023/11/28 08:44:32;;;;;;;1.63;1.53;;;2.30;99.90;;;;;;5076286;28;20193;-71
2023/11/28 08:47:00;;;;;;;2.07;1.87;;;2.30;99.90;;;;;;5076461;28;20265;-70
2023/11/28 08:49:26;;;;;;;1.93;1.83;;;2.30;99.90;;;;;;5072870;28;20449;-70
2023/11/28 08:51:52;;;;;;;1.80;1.70;;;2.40;99.90;;;;;;5076510;28;20466;-71
2023/11/28 08:54:17;;;;;;;2.10;1.90;;;2.50;99.90;;;;;;5079593;28;20464;-70
2023/11/28 08:56:43;;;;;;;3.73;2.30;;;2.50;99.90;;;;;;5079837;28;20212;-70
2023/11/28 08:59:09;;;;;;;1.67;1.57;;;2.50;99.90;;;;;;5070529;28;20226;-71
2023/11/28 09:01:34;;;;;;;1.80;1.70;;;2.40;99.90;;;;;;5074674;28;20177;-70
2023/11/28 09:04:00;;;;;;;2.00;1.90;;;2.40;99.90;;;;;;5067021;28;20234;-70
2023/11/28 09:06:27;;;;;;;1.80;1.70;;;2.30;99.90;;;;;;5063276;28;20193;-70
2023/11/28 09:08:52;;;;;;;2.13;1.70;;;2.30;99.90;;;;;;5072151;28;20268;-71
2023/11/28 09:11:18;;;;;;;1.20;1.20;;;2.30;99.90;;;;;;5077941;28;20513;-71
2023/11/28 09:13:43;;;;;;;1.13;1.07;;;2.20;99.90;;;;;;5084814;28;20228;-70
2023/11/28 09:16:11;;;;;;;1.10;1.10;;;2.20;99.90;;;;;;5071787;28;20189;-71
2023/11/28 09:18:37;;;;;;;1.70;1.60;;;2.10;99.90;;;;;;5076316;28;20176;-71
2023/11/28 09:21:04;;;;;;;1.00;1.00;;;2.10;99.90;;;;;;5077744;28;20442;-69
2023/11/28 09:23:31;;;;;;;1.60;1.50;;;2.00;99.90;;;;;;5075351;28;20295;-71
2023/11/28 09:25:56;;;;;;;2.03;1.83;;;2.00;99.90;;;;;;5081187;28;20466;-70
2023/11/28 09:28:22;;;;;;;1.30;1.20;;;2.00;99.90;;;;;;5079790;28;20445;-71
2023/11/28 09:30:47;;;;;;;1.40;1.30;;;2.10;99.90;;;;;;5073194;28;20259;-71
2023/11/28 09:33:13;;;;;;;1.53;1.43;;;2.10;99.90;;;;;;5074502;28;20180;-71
2023/11/28 09:35:40;;;;;;;1.47;1.37;;;2.10;99.90;;;;;;5077411;28;20180;-71
2023/11/28 09:38:07;;;;;;;1.17;1.10;;;2.20;99.90;;;;;;5073682;28;20216;-71
2023/11/28 09:40:33;;;;;;;1.97;1.87;;;2.10;99.90;;;;;;5085307;28;20445;-72
2023/11/28 09:42:59;;;;;;;2.43;2.20;;;2.00;99.90;;;;;;5068050;28;20945;-71
2023/11/28 09:45:25;;;;;;;1.70;1.60;;;2.00;99.90;;;;;;5066307;28;20206;-70
2023/11/28 09:47:53;;;;;;;1.40;1.30;;;2.10;99.90;;;;;;5079821;28;20844;-71
2023/11/28 09:50:24;;;;;;;1.90;1.70;;;2.10;99.90;;;;;;5073230;28;20431;-70
2023/11/28 09:52:52;;;;;;;2.20;1.70;;;2.10;99.90;;;;;;5072329;28;20510;-70
2023/11/28 09:55:19;;;;;;;1.33;1.23;;;2.10;99.90;;;;;;5080972;28;20443;-71
2023/11/28 09:57:47;;;;;;;1.63;1.53;;;2.10;99.90;;;;;;5079971;28;20715;-70
2023/11/28 10:00:18;;;;;;;6.60;4.10;;;2.10;99.90;;;;;;5074280;28;20443;-72
2023/11/28 10:02:44;;;;;;;2.63;2.10;;;2.20;99.90;;;;;;5066745;28;20436;-71
2023/11/28 10:05:10;;;;;;;2.23;1.57;;;2.10;99.90;;;;;;5076306;28;20636;-71
2023/11/28 10:07:36;;;;;;;1.73;1.63;;;2.10;99.90;;;;;;5069687;28;20459;-71
2023/11/28 10:10:07;;;;;;;2.80;2.10;;;2.10;99.90;;;;;;5079694;28;20188;-71
2023/11/28 10:12:32;;;;;;;1.90;1.77;;;2.10;99.90;;;;;;5072544;28;20431;-71
2023/11/28 10:14:58;;;;;;;2.20;2.03;;;2.20;99.90;;;;;;5072319;28;20962;-71
2023/11/28 10:17:24;;;;;;;2.00;1.87;;;2.10;99.90;;;;;;5077927;28;20200;-71
2023/11/28 10:19:49;;;;;;;2.47;2.27;;;2.00;99.90;;;;;;5081375;28;20249;-71
2023/11/28 10:22:15;;;;;;;2.17;2.07;;;2.10;99.90;;;;;;5073421;28;20218;-71
2023/11/28 10:24:41;;;;;;;4.00;1.93;;;2.10;99.90;;;;;;5080440;28;20631;-71
2023/11/28 10:27:07;;;;;;;2.07;1.97;;;2.10;99.90;;;;;;5071224;28;20284;-70
2023/11/28 10:29:32;;;;;;;1.67;1.57;;;2.10;99.90;;;;;;5084241;28;20192;-72
2023/11/28 10:32:00;;;;;;;2.67;2.47;;;2.10;99.90;;;;;;5078753;28;20646;-72
2023/11/28 10:34:26;;;;;;;1.87;1.77;;;2.20;99.90;;;;;;5072755;28;20441;-71
2023/11/28 10:36:51;;;;;;;1.70;1.60;;;2.10;99.90;;;;;;5073273;28;20455;-71
2023/11/28 10:39:20;;;;;;;2.07;1.97;;;2.20;99.90;;;;;;5087067;28;20445;-71
2023/11/28 10:41:45;;;;;;;3.00;2.80;;;2.20;99.90;;;;;;5079680;28;20206;-73
2023/11/28 10:44:11;;;;;;;2.43;2.33;;;2.30;99.90;;;;;;5080780;28;20459;-71
2023/11/28 10:46:38;;;;;;;3.53;3.33;;;2.30;99.90;;;;;;5076063;28;20580;-72
2023/11/28 10:49:07;;;;;;;2.70;2.50;;;2.40;99.90;;;;;;5079574;28;20436;-71
2023/11/28 10:51:35;;;;;;;2.90;2.23;;;2.20;99.90;;;;;;5077361;28;20430;-71
2023/11/28 10:54:07;;;;;;;2.57;2.37;;;2.20;99.90;;;;;;5080999;28;20518;-71
2023/11/28 10:56:50;;;;;;;3.10;2.90;;;2.00;99.90;;;;;;5081963;28;20993;-71
2023/11/28 10:59:31;;;;;;;4.20;3.30;;;2.10;99.90;;;;;;5075052;28;20525;-72
2023/11/28 11:01:57;;;;;;;2.50;2.40;;;2.10;99.90;;;;;;5075426;28;20465;-70
2023/11/28 11:04:23;;;;;;;2.47;2.27;;;2.10;99.90;;;;;;5083433;28;20454;-70
2023/11/28 11:06:49;;;;;;;3.30;2.80;;;2.10;99.90;;;;;;5073860;28;22209;-72
2023/11/28 11:09:16;;;;;;;3.10;2.90;;;2.00;99.90;;;;;;5079776;28;20458;-69
2023/11/28 11:11:43;;;;;;;3.67;3.37;;;2.00;99.90;;;;;;5079827;28;20435;-73
2023/11/28 11:14:34;;;;;;;3.83;3.53;;;1.90;99.90;;;;;;5083621;28;20962;-73
2023/11/28 11:17:20;;;;;;;3.60;3.20;;;2.00;99.90;;;;;;5076971;28;20450;-73
2023/11/28 11:19:50;;;;;;;4.10;3.80;;;2.00;99.90;;;;;;5080321;28;20806;-74
2023/11/28 11:22:18;;;;;;;4.10;3.80;;;2.00;99.90;;;;;;5083296;28;20460;-71
2023/11/28 11:24:44;;;;;;;4.20;3.80;;;2.10;99.90;;;;;;5075635;28;20458;-70
2023/11/28 11:27:09;;;;;;;3.60;3.40;;;2.10;99.90;;;;;;5073109;28;20538;-67
2023/11/28 11:29:40;;;;;;;3.67;3.37;;;2.10;99.90;;;;;;5066335;28;20342;-69
2023/11/28 11:32:11;;;;;;;3.23;3.03;;;2.10;99.90;;;;;;5067779;28;20566;-68
2023/11/28 11:34:41;;;;;;;4.00;3.70;;;2.10;99.90;;;;;;5073670;28;20465;-70
2023/11/28 11:37:11;;;;;;;5.53;5.03;;;2.10;99.90;;;;;;5070897;28;20456;-69
2023/11/28 11:39:38;;;;;;;92.80;38.67;;;2.10;99.90;;;;;;5084388;28;20997;-68
2023/11/28 11:42:19;;;;;;;9.00;6.33;;;2.10;99.90;;;;;;5079618;28;20517;-70
2023/11/28 11:44:47;;;;;;;9.63;8.03;;;2.00;99.90;;;;;;5074990;28;20475;-69
2023/11/28 11:47:16;;;;;;;6.83;5.67;;;2.00;99.90;;;;;;5078457;28;20845;-66
2023/11/28 11:49:44;;;;;;;6.03;5.10;;;2.10;99.90;;;;;;5069693;28;20507;-69
2023/11/28 11:52:12;;;;;;;4.50;4.10;;;2.10;99.90;;;;;;5081165;28;20438;-71
2023/11/28 11:54:38;;;;;;;7.43;4.97;;;2.10;99.90;;;;;;5081923;28;20473;-70
2023/11/28 11:57:04;;;;;;;8.50;6.10;;;2.10;99.90;;;;;;5081577;28;20512;-70
2023/11/28 11:59:30;;;;;;;5.77;5.20;;;2.20;99.90;;;;;;5069540;28;20557;-71
2023/11/28 12:01:58;;;;;;;4.43;4.00;;;2.20;99.90;;;;;;5074895;28;20445;-71
2023/11/28 12:04:24;;;;;;;11.97;8.33;;;2.20;99.90;;;;;;5078665;28;20461;-71
2023/11/28 12:07:07;;;;;;;13.20;6.60;;;2.20;99.90;;;;;;5066046;28;20465;-71
2023/11/28 12:09:34;;;;;;;5.83;5.20;;;2.20;99.90;;;;;;5074120;28;20442;-72
2023/11/28 12:12:00;;;;;;;6.13;5.20;;;2.20;99.90;;;;;;5077260;28;20512;-72
2023/11/28 12:14:26;;;;;;;6.17;5.20;;;2.20;99.90;;;;;;5081921;28;20444;-72
2023/11/28 12:16:55;;;;;;;5.13;4.67;;;2.10;99.90;;;;;;5074273;28;20866;-72
2023/11/28 12:19:20;;;;;;;4.57;4.17;;;2.10;99.90;;;;;;5073045;28;20184;-72
2023/11/28 12:21:46;;;;;;;5.97;4.13;;;2.10;99.90;;;;;;5072566;28;20434;-71
2023/11/28 12:24:12;;;;;;;5.77;5.17;;;2.00;99.90;;;;;;5081162;28;20321;-72
2023/11/28 12:26:39;;;;;;;5.67;5.07;;;2.10;99.90;;;;;;5072894;28;20599;-72
2023/11/28 12:29:08;;;;;;;4.00;3.70;;;2.10;99.90;;;;;;5073094;28;20940;-71
2023/11/28 12:31:34;;;;;;;5.27;4.87;;;2.00;99.90;;;;;;5072537;28;21193;-72
2023/11/28 12:34:00;;;;;;;6.77;4.80;;;2.10;99.90;;;;;;5082027;28;20519;-73
2023/11/28 12:36:29;;;;;;;5.37;4.97;;;2.10;99.90;;;;;;5070510;28;20881;-71
2023/11/28 12:39:01;;;;;;;5.67;5.17;;;2.10;99.90;;;;;;5084867;28;20180;-71
2023/11/28 12:41:38;;;;;;;9.10;5.47;;;2.00;99.90;;;;;;5077409;28;20588;-71
2023/11/28 12:44:08;;;;;;;6.53;5.83;;;2.00;99.90;;;;;;5082984;28;20485;-72
2023/11/28 12:46:34;;;;;;;6.13;5.63;;;2.00;99.90;;;;;;5080773;28;20532;-72
2023/11/28 12:49:00;;;;;;;6.87;6.30;;;2.00;99.90;;;;;;5084325;28;21144;-71
2023/11/28 12:51:29;;;;;;;6.20;5.60;;;2.00;99.90;;;;;;5066115;28;20525;-71
2023/11/28 12:54:05;;;;;;;7.13;6.53;;;2.00;99.90;;;;;;5079622;28;20184;-71